ESOWESSB

Guest
Details From ESOW - Vasteras
To ESSB - Bromma
Flight Number -
Tags Routegen Generated
Created
Modified
Stats Distance 48 nm / 88 km
Max Altitude 100 ft / 30 m
Waypoints 5
Social Downloads 0
Likes 0
Share VATSIM

Download

Looking for another format? Having issues loading an existing format? Contact us
Advertisement - Login to hide

Notes

Departing runway 0 ESOW. Arriving runway 12 ESSB.

Route

ESOW +59.67_+016.66 +59.54_+017.23 +59.40_+017.81 ESSB

ID Type Via Altitude Latitude Longitude Leg Dist Tot Dist Heading (true) Name
O ESOW APT - 0 ft / 0 m 59.60117˚ 16.63570˚ - 0 nm - -
+59.67_+016.66 LATLON - 100 ft / 30 m 59.67280˚ 16.65611˚ 4 nm 4 nm 8° / 8° -
+59.54_+017.23 LATLON - 100 ft / 30 m 59.53650˚ 17.23470˚ 19 nm 23 nm 115° / 115° -
+59.40_+017.81 LATLON - 100 ft / 30 m 59.40021˚ 17.81330˚ 19 nm 43 nm 115° / 115° -
O ESSB APT - 0 ft / 0 m 59.35867˚ 17.92964˚ 4 nm 47 nm 125° / 125° -

Altitude Profile

Advertisement - Login to hide

ESOW

Details ICAO ESOW (VST)
Name Vasteras
Region Sweden
Timezone Europe/Stockholm (UTC+1.0)
Stats Elevation 21 ft / 6 m (AMSL)
Location 59.589829° 16.633862°
Runways 1
Magnetic Variation 5.581° E

METAR

ESOW 171020Z 23004KT CAVOK M05/M08 Q1013 R19/720170

Decode

TAF

Not found

Departure Runways

ID Width Length Bearing (true) Bearing (mag) Surface Threshold Offset Overrun Length
01 151 ft / 46 m 8,454 ft / 2,577 m 11.62° 6.04° Asphalt 1,309 ft / 399 m 0 ft / 0 m
19 151 ft / 46 m 8,454 ft / 2,577 m 191.63° 186.05° Asphalt 0 ft / 0 m 0 ft / 0 m

ESSB

Details ICAO ESSB (BMA)
Name BROMMA
Region Sweden
Timezone Europe/Stockholm (UTC+1.0)
Stats Elevation 47 ft / 14 m (AMSL)
Location 59.354389° 17.941604°
Runways 1
Magnetic Variation 6.051° E

METAR

ESSB 171020Z 26006KT CAVOK M03/M05 Q1013

Decode

TAF

Not found

Destination Runways

ID Width Length Bearing (true) Bearing (mag) Surface Threshold Offset Overrun Length
12 148 ft / 45 m 6,201 ft / 1,890 m 125.06° 119.01° Asphalt 381 ft / 116 m 0 ft / 0 m
30 148 ft / 45 m 6,201 ft / 1,890 m 305.09° 299.04° Asphalt 361 ft / 110 m 0 ft / 0 m

Approach Navaids

Runway Type Ident Frequency Range Bearing (true) Bearing (mag) Slope Elevation
12 Localiser SB 110.30 MHz 18 nm / 33 km 125.06° 119.01° - 40 ft / 12 m (AMSL)
12 Glidescope SB 110.30 MHz 10 nm / 19 km 125.07° 119.02° 3.50° 45 ft / 14 m (AMSL)
30 Localiser SBA 109.70 MHz 18 nm / 33 km 305.04° 298.99° - 45 ft / 14 m (AMSL)
30 Glidescope SBA 109.70 MHz 10 nm / 19 km 305.07° 299.02° 3.50° 40 ft / 12 m (AMSL)